createdAt,value
2023-03-26T00:02:12.283Z,100.00
2023-03-26T00:04:58.961Z,99.98
2023-03-26T00:07:45.620Z,100.00
2023-03-26T00:10:32.567Z,100.00
2023-03-26T00:13:19.199Z,100.00
2023-03-26T00:16:05.959Z,100.00
2023-03-26T00:18:53.561Z,100.00
2023-03-26T00:21:43.289Z,100.00
2023-03-26T00:24:38.942Z,100.00
2023-03-26T00:27:27.376Z,100.00
2023-03-26T00:30:14.882Z,100.00
2023-03-26T00:33:02.911Z,100.00
2023-03-26T00:35:56.168Z,100.00
2023-03-26T00:38:46.276Z,100.00
2023-03-26T00:41:36.284Z,100.00
2023-03-26T00:44:23.092Z,100.00
2023-03-26T00:47:10.412Z,100.00
2023-03-26T00:49:57.023Z,100.00
2023-03-26T00:52:45.645Z,100.00
2023-03-26T00:55:35.349Z,100.00
2023-03-26T00:58:22.050Z,100.00
2023-03-26T01:01:16.217Z,100.00
2023-03-26T01:04:34.069Z,99.99
2023-03-26T01:07:28.278Z,99.88
2023-03-26T01:10:14.545Z,99.70
2023-03-26T01:13:01.345Z,99.80
2023-03-26T01:15:50.461Z,99.55
2023-03-26T01:18:40.450Z,99.25
2023-03-26T01:21:29.740Z,99.15
2023-03-26T01:24:16.403Z,99.39
2023-03-26T01:27:33.000Z,99.69
2023-03-26T01:30:34.754Z,99.35
2023-03-26T01:33:54.255Z,99.27
2023-03-26T01:37:05.523Z,99.49
2023-03-26T01:40:17.598Z,99.22
2023-03-26T01:43:36.303Z,99.12
2023-03-26T01:46:24.994Z,99.58
2023-03-26T01:49:12.637Z,99.45
2023-03-26T01:51:59.366Z,99.56
2023-03-26T01:54:46.155Z,99.63
2023-03-26T01:58:31.038Z,99.59
2023-03-26T02:01:59.346Z,99.34
2023-03-26T02:05:13.485Z,99.26
2023-03-26T02:08:22.057Z,99.33
2023-03-26T02:11:14.311Z,99.32
2023-03-26T02:14:06.528Z,99.48
2023-03-26T02:16:53.304Z,99.62
2023-03-26T02:19:43.064Z,99.57
2023-03-26T02:22:30.020Z,99.78
2023-03-26T02:25:20.568Z,99.63
2023-03-26T02:28:08.010Z,99.93
2023-03-26T02:30:57.140Z,99.70
2023-03-26T02:33:46.871Z,99.93
2023-03-26T02:36:35.236Z,99.76
2023-03-26T02:39:24.750Z,99.80
2023-03-26T02:42:15.678Z,99.79
2023-03-26T02:45:07.003Z,99.69
2023-03-26T02:48:14.533Z,99.87
2023-03-26T02:51:20.609Z,99.79
2023-03-26T02:54:18.311Z,99.65
2023-03-26T02:57:23.595Z,99.82
2023-03-26T03:00:28.447Z,99.97
2023-03-26T03:03:38.403Z,99.81
2023-03-26T03:06:39.873Z,99.85
2023-03-26T03:09:26.306Z,99.80
2023-03-26T03:12:42.504Z,99.97
2023-03-26T03:15:30.559Z,99.97
2023-03-26T03:18:17.327Z,99.97
2023-03-26T03:21:05.490Z,99.99
2023-03-26T03:23:56.329Z,100.00
2023-03-26T03:26:49.638Z,99.93
2023-03-26T03:29:44.360Z,99.94
2023-03-26T03:32:49.851Z,100.00
2023-03-26T03:35:39.518Z,99.99
2023-03-26T03:38:26.403Z,100.00
2023-03-26T03:41:13.599Z,100.00
2023-03-26T03:44:02.159Z,100.00
2023-03-26T03:46:53.473Z,100.00
2023-03-26T03:49:40.707Z,100.00
2023-03-26T03:52:27.572Z,100.00
2023-03-26T03:55:14.688Z,100.00
2023-03-26T03:58:09.388Z,100.00
2023-03-26T04:01:00.218Z,100.00
2023-03-26T04:04:00.897Z,100.00
2023-03-26T04:06:59.358Z,100.00
2023-03-26T04:09:50.161Z,100.00
2023-03-26T04:12:37.169Z,100.00
2023-03-26T04:15:24.824Z,100.00
2023-03-26T04:18:11.654Z,99.95
2023-03-26T04:21:02.486Z,99.97
2023-03-26T04:23:49.812Z,99.89
2023-03-26T04:27:00.629Z,99.93
2023-03-26T04:29:53.807Z,100.00
2023-03-26T04:32:44.008Z,99.76
2023-03-26T04:35:36.161Z,99.75
2023-03-26T04:38:23.697Z,99.52
2023-03-26T04:41:15.002Z,99.62
2023-03-26T04:44:21.676Z,99.42
2023-03-26T04:47:15.424Z,99.13
2023-03-26T04:50:08.846Z,99.00
2023-03-26T04:52:57.664Z,98.73
2023-03-26T04:56:27.390Z,98.93
2023-03-26T04:59:37.090Z,98.81
2023-03-26T05:02:26.089Z,98.78
2023-03-26T05:05:13.877Z,98.56
2023-03-26T05:08:00.426Z,98.64
2023-03-26T05:10:46.848Z,98.40
2023-03-26T05:13:42.204Z,98.38
2023-03-26T05:16:31.171Z,97.96
2023-03-26T05:19:24.710Z,97.68
2023-03-26T05:22:12.678Z,96.68
2023-03-26T05:25:06.795Z,96.25
2023-03-26T05:27:53.384Z,95.81
2023-03-26T05:30:42.801Z,96.20
2023-03-26T05:33:29.796Z,95.84
2023-03-26T05:36:23.807Z,95.93
2023-03-26T05:39:25.077Z,95.83
2023-03-26T05:42:21.266Z,96.12
2023-03-26T05:45:21.760Z,96.34
2023-03-26T05:48:08.672Z,96.41
2023-03-26T05:50:57.868Z,96.31
2023-03-26T05:53:46.103Z,95.95
2023-03-26T05:56:52.134Z,96.08
2023-03-26T05:59:57.253Z,95.99
2023-03-26T06:03:02.703Z,96.05
2023-03-26T06:06:19.883Z,96.00
2023-03-26T06:09:14.093Z,95.57
2023-03-26T06:12:01.422Z,95.75
2023-03-26T06:14:49.745Z,95.56
2023-03-26T06:17:39.412Z,95.59
2023-03-26T06:20:46.620Z,95.08
2023-03-26T06:23:48.395Z,94.67
2023-03-26T06:26:52.035Z,94.04
2023-03-26T06:29:38.532Z,94.35
2023-03-26T06:32:45.143Z,94.30
2023-03-26T06:35:37.351Z,93.99
2023-03-26T06:38:24.813Z,93.74
2023-03-26T06:41:11.449Z,93.48
2023-03-26T06:44:21.577Z,93.03
2023-03-26T06:47:27.895Z,92.76
2023-03-26T06:50:33.062Z,92.67
2023-03-26T06:53:32.685Z,91.84
2023-03-26T06:56:36.323Z,91.14
2023-03-26T06:59:39.422Z,91.21
2023-03-26T07:02:44.981Z,89.78
2023-03-26T11:45:21.948Z,76.02
2023-03-26T11:48:30.133Z,76.20
2023-03-26T11:51:39.658Z,75.78
2023-03-26T11:54:27.596Z,75.57
2023-03-26T11:57:27.905Z,76.25
2023-03-26T12:00:20.408Z,77.11
2023-03-26T12:03:15.370Z,77.72
2023-03-26T12:06:02.211Z,77.35
2023-03-26T12:08:50.528Z,77.55
2023-03-26T12:11:38.994Z,76.16
2023-03-26T12:14:29.630Z,77.03
2023-03-26T12:17:32.064Z,77.50
2023-03-26T12:20:34.221Z,78.44
2023-03-26T12:23:55.568Z,79.08
2023-03-26T12:26:45.825Z,79.83
2023-03-26T12:29:33.908Z,80.98
2023-03-26T12:32:22.465Z,80.92
2023-03-26T12:35:35.502Z,80.79
2023-03-26T12:38:35.059Z,81.14
2023-03-26T12:44:43.867Z,81.46
2023-03-26T12:44:59.389Z,81.99
2023-03-26T12:47:56.987Z,82.62
2023-03-26T12:51:32.617Z,80.54
2023-03-26T12:54:55.312Z,78.78
2023-03-26T12:58:14.072Z,78.46
2023-03-26T13:01:41.435Z,78.40
2023-03-26T13:05:22.672Z,79.40
2023-03-26T13:08:37.623Z,79.50
2023-03-26T13:11:50.713Z,80.12
2023-03-26T13:15:07.372Z,80.06
2023-03-26T13:18:19.112Z,77.95
2023-03-26T13:21:30.441Z,76.00
2023-03-26T13:24:56.937Z,75.71
2023-03-26T13:27:45.788Z,75.36
2023-03-26T13:30:56.188Z,75.31
2023-03-26T13:34:27.852Z,75.83
2023-03-26T13:37:36.616Z,76.91
2023-03-26T13:41:11.757Z,76.61
2023-03-26T13:44:01.601Z,76.83
2023-03-26T13:47:16.228Z,76.63
2023-03-26T13:50:18.008Z,75.73
2023-03-26T13:53:28.329Z,76.73
2023-03-26T13:56:20.013Z,76.32
2023-03-26T13:59:31.298Z,76.45
2023-03-26T14:02:32.793Z,75.57
2023-03-26T14:05:44.945Z,73.92
2023-03-26T14:08:47.189Z,72.07
2023-03-26T14:11:57.427Z,70.30
2023-03-26T14:15:05.679Z,70.57
2023-03-26T14:18:01.318Z,68.89
2023-03-26T14:21:06.813Z,67.58
2023-03-26T14:24:08.029Z,67.79
2023-03-26T14:27:12.568Z,65.72
2023-03-26T14:30:36.591Z,65.09
2023-03-26T14:33:44.270Z,65.36
2023-03-26T14:36:58.548Z,65.00
2023-03-26T14:40:14.437Z,63.69
2023-03-26T14:43:03.782Z,61.94
2023-03-26T14:46:31.161Z,62.55
2023-03-26T14:49:40.291Z,59.82
2023-03-26T14:52:52.782Z,60.48
2023-03-26T14:56:06.525Z,60.71
2023-03-26T14:59:43.587Z,60.89
2023-03-26T15:03:02.410Z,60.41
2023-03-26T15:06:35.342Z,61.60
2023-03-26T15:10:01.119Z,62.58
2023-03-26T15:13:42.706Z,61.43
2023-03-26T15:17:08.839Z,60.56
2023-03-26T15:20:31.373Z,61.13
2023-03-26T15:23:38.881Z,62.03
2023-03-26T15:27:01.266Z,62.81
2023-03-26T15:30:09.715Z,63.30
2023-03-26T15:33:26.022Z,63.82
2023-03-26T15:36:29.729Z,64.66
2023-03-26T15:39:59.434Z,65.18
2023-03-26T15:43:01.223Z,66.20
2023-03-26T15:46:11.509Z,67.35
2023-03-26T15:49:24.389Z,68.27
2023-03-26T15:52:35.988Z,68.86
2023-03-26T15:55:52.033Z,69.57
2023-03-26T15:59:16.189Z,69.65
2023-03-26T16:02:07.042Z,68.69
2023-03-26T16:05:28.837Z,67.86
2023-03-26T16:08:52.376Z,66.89
2023-03-26T16:11:52.199Z,67.27
2023-03-26T16:14:47.495Z,67.99
2023-03-26T16:18:18.907Z,68.19
2023-03-26T16:21:38.718Z,68.33
2023-03-26T16:24:30.376Z,67.95
2023-03-26T16:27:33.464Z,68.47
2023-03-26T16:30:29.843Z,68.44
2023-03-26T16:33:20.640Z,68.53
2023-03-26T16:36:35.993Z,68.88
2023-03-26T16:39:43.676Z,69.01
2023-03-26T16:42:39.349Z,69.23
2023-03-26T16:45:47.926Z,69.29
2023-03-26T16:48:47.337Z,67.53
2023-03-26T16:52:10.632Z,67.36
2023-03-26T16:55:26.633Z,67.05
2023-03-26T16:58:53.240Z,67.54
2023-03-26T17:02:04.465Z,67.87
2023-03-26T17:05:08.918Z,67.95
2023-03-26T17:08:35.391Z,68.12
2023-03-26T17:11:48.057Z,68.74
2023-03-26T17:15:05.346Z,69.36
2023-03-26T17:18:20.792Z,69.65
2023-03-26T17:21:25.764Z,70.14
2023-03-26T17:24:29.038Z,70.88
2023-03-26T17:27:55.187Z,71.10
2023-03-26T17:31:03.006Z,71.03
2023-03-26T17:33:50.141Z,71.31
2023-03-26T17:36:42.943Z,71.77
2023-03-26T17:39:38.331Z,72.24
2023-03-26T17:42:37.707Z,72.30
2023-03-26T17:45:29.907Z,72.81
2023-03-26T17:48:21.821Z,72.95
2023-03-26T17:51:52.099Z,73.17
2023-03-26T17:54:46.884Z,73.38
2023-03-26T17:57:43.708Z,73.39
2023-03-26T18:00:43.002Z,73.14
2023-03-26T18:03:43.497Z,73.55
2023-03-26T18:07:13.080Z,73.61
2023-03-26T18:10:42.673Z,73.77
2023-03-26T18:14:23.449Z,73.53
2023-03-26T18:17:11.527Z,73.44
2023-03-26T18:20:06.569Z,73.96
2023-03-26T18:22:53.984Z,74.27
2023-03-26T18:30:10.026Z,74.30
2023-03-26T18:33:23.834Z,74.40
2023-03-26T18:36:25.722Z,74.74
2023-03-26T18:39:33.578Z,74.60
2023-03-26T18:42:27.285Z,74.84
2023-03-26T18:45:41.325Z,74.83
2023-03-26T18:48:58.975Z,75.09
2023-03-26T18:51:56.696Z,75.02
2023-03-26T18:54:48.245Z,75.34
2023-03-26T18:57:35.994Z,75.42
2023-03-26T19:00:27.295Z,75.73
2023-03-26T19:03:18.936Z,76.09
2023-03-26T19:06:13.069Z,76.26
2023-03-26T19:09:03.103Z,76.65
2023-03-26T19:11:56.476Z,76.98
2023-03-26T19:14:54.891Z,77.40
2023-03-26T19:17:52.914Z,77.81
2023-03-26T19:20:49.781Z,77.83
2023-03-26T19:23:40.488Z,78.01
2023-03-26T19:26:27.230Z,77.99
2023-03-26T19:29:18.691Z,78.00
2023-03-26T19:32:33.184Z,78.12
2023-03-26T19:35:22.976Z,78.07
2023-03-26T19:38:27.174Z,78.41
2023-03-26T19:41:45.235Z,78.36
2023-03-26T19:44:32.930Z,78.87
2023-03-26T19:47:39.115Z,78.96
2023-03-26T19:50:36.350Z,79.13
2023-03-26T19:53:34.812Z,79.41
2023-03-26T19:56:22.320Z,79.55
2023-03-26T19:59:08.930Z,79.80
2023-03-26T20:01:55.349Z,80.31
2023-03-26T20:04:43.362Z,80.42
2023-03-26T20:07:35.284Z,81.85
2023-03-26T20:10:23.707Z,82.14
2023-03-26T20:13:17.205Z,82.70
2023-03-26T20:16:14.777Z,82.71
2023-03-26T20:19:07.814Z,82.75
2023-03-26T20:22:01.021Z,83.02
2023-03-26T20:24:47.967Z,83.13
2023-03-26T20:27:35.094Z,83.61
2023-03-26T20:30:37.030Z,83.64
2023-03-26T20:33:26.490Z,83.82
2023-03-26T20:36:13.622Z,83.70
2023-03-26T20:39:04.899Z,83.66
2023-03-26T20:41:54.180Z,84.08
2023-03-26T20:44:46.484Z,84.15
2023-03-26T20:47:37.083Z,84.63
2023-03-26T20:50:24.203Z,84.53
2023-03-26T20:53:17.676Z,84.73
2023-03-26T20:56:20.306Z,85.41
2023-03-26T20:59:11.493Z,85.49
2023-03-26T21:01:58.775Z,85.76
2023-03-26T21:04:47.669Z,86.06
2023-03-26T21:07:34.563Z,86.44
2023-03-26T21:10:22.483Z,87.09
2023-03-26T21:13:30.637Z,87.48
2023-03-26T21:16:17.501Z,88.15
2023-03-26T21:19:05.170Z,89.10
2023-03-26T21:22:05.932Z,88.63
2023-03-26T21:24:58.508Z,88.70
2023-03-26T21:28:09.128Z,87.91
2023-03-26T21:30:56.581Z,87.31
2023-03-26T21:33:46.071Z,86.31
2023-03-26T21:36:33.081Z,86.29
2023-03-26T21:39:20.702Z,86.50
2023-03-26T21:42:07.852Z,86.53
2023-03-26T21:44:55.510Z,86.54
2023-03-26T21:47:42.981Z,85.20
2023-03-26T21:50:30.597Z,84.19
2023-03-26T21:53:17.924Z,84.19
2023-03-26T21:56:40.772Z,84.07
2023-03-26T21:59:30.360Z,83.90
2023-03-26T22:02:36.319Z,83.49
2023-03-26T22:05:43.324Z,83.38
2023-03-26T22:08:38.233Z,83.56
2023-03-26T22:11:25.449Z,83.91
2023-03-26T22:14:12.914Z,83.72
2023-03-26T22:17:01.648Z,84.06
2023-03-26T22:19:48.643Z,84.20
2023-03-26T22:22:35.919Z,84.28
2023-03-26T22:25:23.427Z,84.39
2023-03-26T22:28:09.933Z,84.44
2023-03-26T22:30:56.683Z,84.31
2023-03-26T22:33:51.968Z,83.90
2023-03-26T22:36:40.453Z,84.10
2023-03-26T22:39:26.955Z,83.34
2023-03-26T22:42:13.491Z,83.48
2023-03-26T22:45:00.163Z,83.23
2023-03-26T22:47:46.676Z,80.76
2023-03-26T22:50:33.294Z,79.89
2023-03-26T22:53:20.321Z,77.98
2023-03-26T22:56:11.095Z,77.56
2023-03-26T22:58:57.618Z,77.32
2023-03-26T23:01:44.895Z,77.37
2023-03-26T23:04:32.414Z,77.32
2023-03-26T23:07:19.206Z,77.44
2023-03-26T23:10:08.720Z,77.03
2023-03-26T23:12:55.952Z,76.87
2023-03-26T23:15:44.494Z,77.08
2023-03-26T23:18:31.334Z,76.77
2023-03-26T23:21:21.912Z,76.72
2023-03-26T23:24:08.506Z,76.87
2023-03-26T23:26:55.307Z,77.17
2023-03-26T23:29:41.758Z,77.26
2023-03-26T23:32:28.756Z,77.75
2023-03-26T23:35:15.981Z,77.83
2023-03-26T23:38:02.747Z,77.87
2023-03-26T23:40:57.269Z,78.05
2023-03-26T23:43:53.521Z,78.17
2023-03-26T23:46:43.642Z,78.12
2023-03-26T23:49:30.122Z,78.06
2023-03-26T23:52:16.700Z,78.01
2023-03-26T23:55:03.646Z,77.96
2023-03-26T23:57:51.013Z,78.13
